Forside
METAR-TAF:

METAR-TAF

Lufthavne :

Bolton Field

Columbus, Ohio, USA

Breddekreds: 39-54-03N, længdekreds: 083-08-14W, højde: 276 m

Aktuelle vejr

Denne rapport blev lavet for 41 minutter siden, kl. 20:47 UTC
Vind 11 kt fra vestsydvest
Temperatur 1°C
Fugtighed 86%
Tryk 1013 hPa
Sigt: 16.1 km
Overskyet i en højde af 1000 ft

METAR: KTZR 262047Z 25011KT 10SM OVC010 01/M01 A2991

Tid: 16:28 (21:28 UTC)


TAF: fraværende

Vejrobservationer og prognoser fra mere end 4000 lufthavne (METAR og TAF).

De gule og røde prikker repræsenterer de meteorologiske stationer.

Flyt musen over at se navnet på stationen.

Så klik over at se vejr observationer og prognoser.

At skifte det kort: Klik på de grønne knapper med et sort kors for at zoome ind; på den grønne knap med en bindestreg for at zoome ud; eller på de grønne pile for tilstødende kort.


METAR-TAF: